Nuckols, Kentucky
Current Conditions -  °F | °C
As of 9:56 PM on Tuesday 27 Jan 2015 (Local Time) from KOWB Reporting Station
Overcast Overcast  
Wind Chill: 27°   Ceiling: 1700
Heat Index: 33°   Visibility: 10mi
Dew Point: 29°   Wind: 6mph
Humidity: 86%   Direction: 30°NNE
Pressure: 30.25"   Gusts: NA
Location:  37.517°N, 87.0795°W
Report Text: KOWB 280356Z 03005KT 10SM FEW013 OVC017 01/M02 A3025 RMK AO2 T00051016 SLP246
Loading
Personal Weather Stations






























Interactive Weather Map New forecast layout! Learn more

10-Day Weather Forecast

Advertisements
Track Severe Weather on mobile